Time;durP1;ratioP1;P1;durP2;ratioP2;P2;SDS_P1;SDS_P2;PMS_P1;PMS_P2;Temp;Humidity;BMP_temperature;BMP_pressure;BME280_temperature;BME280_humidity;BME280_pressure;Samples;Min_cycle;Max_cycle;Signal;HPM_P1;HPM_P2
2024/03/25 00:00:20;;;;;;;0.50;0.50;;;;;;;;;;4923435;29;20319;-87
2024/03/25 00:03:24;;;;;;;0.30;0.30;;;;;;;;;;4923221;28;20239;-89
2024/03/25 00:06:33;;;;;;;0.50;0.50;;;;;;;;;;4923401;29;20224;-89
2024/03/25 00:09:37;;;;;;;0.30;0.30;;;;;;;;;;4924343;28;20196;-88
2024/03/25 00:12:42;;;;;;;0.73;0.73;;;;;;;;;;4940121;29;20681;-88
2024/03/25 00:15:47;;;;;;;0.40;0.40;;;;;;;;;;4940946;29;20187;-90
2024/03/25 00:18:52;;;;;;;0.40;0.40;;;;;;;;;;4941364;29;20227;-89
2024/03/25 00:21:57;;;;;;;1.80;0.80;;;;;;;;;;4941351;29;20191;-90
2024/03/25 00:25:02;;;;;;;0.53;0.53;;;;;;;;;;4941490;29;20596;-89
2024/03/25 00:28:07;;;;;;;3.60;0.73;;;;;;;;;;4922454;28;20703;-89
2024/03/25 00:31:11;;;;;;;0.50;0.50;;;;;;;;;;4921421;28;20208;-91
2024/03/25 00:34:17;;;;;;;0.50;0.50;;;;;;;;;;4933547;28;20183;-90
2024/03/25 00:37:24;;;;;;;0.70;0.70;;;;;;;;;;4939005;28;20572;-90
2024/03/25 00:40:29;;;;;;;0.40;0.40;;;;;;;;;;4941118;28;20295;-89
2024/03/25 00:43:33;;;;;;;0.40;0.40;;;;;;;;;;4941471;28;20219;-88
2024/03/25 00:46:40;;;;;;;0.50;0.50;;;;;;;;;;4940462;29;20260;-91
2024/03/25 00:49:44;;;;;;;0.50;0.50;;;;;;;;;;4941987;29;20266;-88
2024/03/25 00:52:50;;;;;;;1.90;0.83;;;;;;;;;;4942057;28;20714;-90
2024/03/25 00:55:55;;;;;;;3.80;1.27;;;;;;;;;;4933392;28;20200;-90
2024/03/25 00:59:02;;;;;;;0.50;0.50;;;;;;;;;;4936644;29;20222;-89
2024/03/25 01:02:08;;;;;;;0.30;0.30;;;;;;;;;;4929150;29;20228;-87
2024/03/25 01:05:13;;;;;;;0.77;0.77;;;;;;;;;;4926706;29;20196;-89
2024/03/25 01:08:19;;;;;;;0.57;0.57;;;;;;;;;;4927365;29;20218;-89
2024/03/25 01:11:25;;;;;;;0.50;0.50;;;;;;;;;;4926578;29;20212;-88
2024/03/25 01:14:28;;;;;;;0.43;0.40;;;;;;;;;;4927210;29;20212;-88
2024/03/25 01:17:35;;;;;;;1.00;0.90;;;;;;;;;;4926787;28;20180;-91
2024/03/25 01:20:39;;;;;;;0.33;0.33;;;;;;;;;;4925713;29;20348;-90
2024/03/25 01:23:45;;;;;;;0.50;0.50;;;;;;;;;;4926752;28;20249;-91
2024/03/25 01:26:51;;;;;;;0.40;0.40;;;;;;;;;;4926667;28;20675;-90
2024/03/25 01:29:56;;;;;;;0.53;0.53;;;;;;;;;;4924726;28;20196;-88
2024/03/25 01:33:00;;;;;;;0.33;0.33;;;;;;;;;;4925955;28;20212;-89
2024/03/25 01:36:05;;;;;;;0.50;0.50;;;;;;;;;;4923793;29;20248;-88
2024/03/25 01:39:11;;;;;;;0.40;0.40;;;;;;;;;;4925639;28;20215;-90
2024/03/25 01:42:16;;;;;;;0.60;0.60;;;;;;;;;;4925252;28;20273;-90
2024/03/25 01:45:20;;;;;;;4.80;0.73;;;;;;;;;;4924306;29;20224;-89
2024/03/25 01:48:25;;;;;;;0.40;0.40;;;;;;;;;;4926371;28;20196;-89
2024/03/25 01:51:30;;;;;;;0.40;0.40;;;;;;;;;;4931847;29;20202;-89
2024/03/25 01:54:36;;;;;;;0.40;0.40;;;;;;;;;;4944534;29;20223;-88
2024/03/25 01:57:40;;;;;;;0.40;0.40;;;;;;;;;;4944828;28;20183;-89
2024/03/25 02:00:45;;;;;;;0.60;0.53;;;;;;;;;;4943973;29;20236;-89
2024/03/25 02:03:50;;;;;;;0.60;0.60;;;;;;;;;;4943981;28;20238;-89
2024/03/25 02:06:58;;;;;;;6.13;0.73;;;;;;;;;;4944280;28;20243;-89
2024/03/25 02:10:03;;;;;;;0.60;0.60;;;;;;;;;;4924753;29;20571;-90
2024/03/25 02:13:08;;;;;;;0.53;0.43;;;;;;;;;;4925527;29;20192;-88
2024/03/25 02:16:14;;;;;;;0.40;0.40;;;;;;;;;;4925606;29;20239;-90
2024/03/25 02:19:19;;;;;;;0.40;0.40;;;;;;;;;;4924931;29;20227;-88
2024/03/25 02:22:24;;;;;;;0.50;0.50;;;;;;;;;;4925722;28;20215;-89
2024/03/25 02:25:30;;;;;;;0.50;0.50;;;;;;;;;;4925064;29;20192;-89
2024/03/25 02:28:37;;;;;;;0.40;0.40;;;;;;;;;;4924977;28;20176;-88
2024/03/25 02:31:42;;;;;;;0.30;0.30;;;;;;;;;;4925228;28;20281;-90
2024/03/25 02:34:48;;;;;;;2.13;0.70;;;;;;;;;;4924805;28;20223;-90
2024/03/25 02:37:52;;;;;;;0.30;0.30;;;;;;;;;;4925529;28;20180;-88
2024/03/25 02:40:57;;;;;;;0.40;0.40;;;;;;;;;;4936443;28;20219;-88
2024/03/25 02:44:03;;;;;;;0.40;0.40;;;;;;;;;;4925277;29;20192;-89
2024/03/25 02:47:08;;;;;;;0.30;0.30;;;;;;;;;;4936701;28;20232;-88
2024/03/25 02:50:11;;;;;;;0.40;0.40;;;;;;;;;;4924955;28;20203;-88
2024/03/25 02:53:17;;;;;;;0.43;0.43;;;;;;;;;;4925318;29;20240;-87
2024/03/25 02:56:21;;;;;;;0.40;0.40;;;;;;;;;;4935549;28;20316;-89
2024/03/25 02:59:27;;;;;;;0.63;0.60;;;;;;;;;;4933828;29;20215;-88
2024/03/25 03:02:31;;;;;;;1.23;0.93;;;;;;;;;;4936829;28;20176;-88
2024/03/25 03:05:36;;;;;;;0.40;0.40;;;;;;;;;;4936819;29;20207;-88
2024/03/25 03:08:40;;;;;;;0.40;0.40;;;;;;;;;;4943466;28;20530;-87
2024/03/25 03:11:45;;;;;;;0.40;0.40;;;;;;;;;;4925540;29;20659;-87
2024/03/25 03:14:52;;;;;;;0.30;0.30;;;;;;;;;;4936398;29;20263;-89
2024/03/25 03:17:56;;;;;;;0.70;0.50;;;;;;;;;;4936270;28;20667;-87
2024/03/25 03:21:01;;;;;;;0.70;0.70;;;;;;;;;;4926367;29;20224;-88
2024/03/25 03:24:05;;;;;;;0.40;0.40;;;;;;;;;;4925128;28;20659;-89
2024/03/25 03:27:10;;;;;;;2.80;0.90;;;;;;;;;;4925595;28;20270;-88
2024/03/25 03:30:17;;;;;;;0.47;0.47;;;;;;;;;;4925639;28;20282;-87
2024/03/25 03:33:22;;;;;;;0.40;0.40;;;;;;;;;;4923788;29;20196;-88
2024/03/25 03:36:26;;;;;;;2.40;0.63;;;;;;;;;;4936010;28;20249;-89
2024/03/25 03:39:31;;;;;;;0.50;0.50;;;;;;;;;;4925037;28;20299;-90
2024/03/25 03:42:35;;;;;;;0.40;0.40;;;;;;;;;;4925957;29;20287;-87
2024/03/25 03:45:41;;;;;;;0.30;0.30;;;;;;;;;;4925388;29;20220;-87
2024/03/25 03:48:45;;;;;;;0.30;0.30;;;;;;;;;;4925604;28;20212;-88
2024/03/25 03:51:51;;;;;;;0.50;0.50;;;;;;;;;;4925500;28;20350;-88
2024/03/25 03:54:56;;;;;;;0.30;0.30;;;;;;;;;;4947134;28;20353;-88
2024/03/25 03:58:00;;;;;;;0.30;0.30;;;;;;;;;;4946336;28;20207;-88
2024/03/25 04:01:15;;;;;;;0.50;0.50;;;;;;;;;;4943143;28;20223;-89
2024/03/25 04:04:20;;;;;;;0.50;0.50;;;;;;;;;;4942930;28;20315;-88
2024/03/25 04:07:26;;;;;;;1.47;0.53;;;;;;;;;;4941717;29;20611;-88
2024/03/25 04:10:31;;;;;;;1.57;0.87;;;;;;;;;;4943324;29;20239;-89
2024/03/25 04:13:35;;;;;;;0.40;0.40;;;;;;;;;;4942747;28;20183;-89
2024/03/25 04:16:42;;;;;;;0.63;0.63;;;;;;;;;;4944598;28;20179;-87
2024/03/25 04:19:46;;;;;;;0.40;0.40;;;;;;;;;;4943703;28;20538;-88
2024/03/25 04:22:51;;;;;;;0.87;0.50;;;;;;;;;;4943776;28;20676;-89
2024/03/25 04:25:55;;;;;;;0.50;0.50;;;;;;;;;;4955575;28;20192;-88
2024/03/25 04:29:01;;;;;;;1.23;1.07;;;;;;;;;;4943548;29;20263;-87
2024/03/25 04:32:06;;;;;;;0.40;0.40;;;;;;;;;;4943755;28;20658;-88
2024/03/25 04:35:11;;;;;;;0.50;0.50;;;;;;;;;;4946331;29;20194;-90
